sensor_id;sensor_type;location;lat;lon;timestamp;temperature;humidity
52513;DHT22;38422;53.172;6.974;2023-04-15T00:00:29;9.20;99.90
52513;DHT22;38422;53.172;6.974;2023-04-15T00:02:55;9.10;99.90
52513;DHT22;38422;53.172;6.974;2023-04-15T00:05:21;9.10;99.90
52513;DHT22;38422;53.172;6.974;2023-04-15T00:07:46;9.10;99.90
52513;DHT22;38422;53.172;6.974;2023-04-15T00:10:13;9.00;99.90
52513;DHT22;38422;53.172;6.974;2023-04-15T00:12:41;9.00;99.90
52513;DHT22;38422;53.172;6.974;2023-04-15T00:15:08;8.90;99.90
52513;DHT22;38422;53.172;6.974;2023-04-15T00:17:34;8.90;99.90
52513;DHT22;38422;53.172;6.974;2023-04-15T00:19:59;8.90;99.90
52513;DHT22;38422;53.172;6.974;2023-04-15T00:22:28;8.80;99.90
52513;DHT22;38422;53.172;6.974;2023-04-15T00:24:54;8.80;99.90
52513;DHT22;38422;53.172;6.974;2023-04-15T00:27:19;8.70;99.90
52513;DHT22;38422;53.172;6.974;2023-04-15T00:29:45;8.70;99.90
52513;DHT22;38422;53.172;6.974;2023-04-15T00:32:11;8.70;99.90
52513;DHT22;38422;53.172;6.974;2023-04-15T00:34:37;8.60;99.90
52513;DHT22;38422;53.172;6.974;2023-04-15T00:37:02;8.60;99.90
52513;DHT22;38422;53.172;6.974;2023-04-15T00:39:28;8.60;99.90
52513;DHT22;38422;53.172;6.974;2023-04-15T00:41:54;8.60;99.90
52513;DHT22;38422;53.172;6.974;2023-04-15T00:44:20;8.60;99.90
52513;DHT22;38422;53.172;6.974;2023-04-15T00:46:46;8.50;99.90
52513;DHT22;38422;53.172;6.974;2023-04-15T00:49:13;8.60;99.90
52513;DHT22;38422;53.172;6.974;2023-04-15T00:51:38;8.50;99.90
52513;DHT22;38422;53.172;6.974;2023-04-15T00:54:05;8.50;99.90
52513;DHT22;38422;53.172;6.974;2023-04-15T00:56:36;8.50;99.90
52513;DHT22;38422;53.172;6.974;2023-04-15T00:59:04;8.40;99.90
52513;DHT22;38422;53.172;6.974;2023-04-15T01:01:32;8.40;99.90
52513;DHT22;38422;53.172;6.974;2023-04-15T01:03:58;8.40;99.90
52513;DHT22;38422;53.172;6.974;2023-04-15T01:06:24;8.40;99.90
52513;DHT22;38422;53.172;6.974;2023-04-15T01:08:51;8.30;99.90
52513;DHT22;38422;53.172;6.974;2023-04-15T01:11:17;8.30;99.90
52513;DHT22;38422;53.172;6.974;2023-04-15T01:13:43;8.30;99.90
52513;DHT22;38422;53.172;6.974;2023-04-15T01:16:10;8.20;99.90
52513;DHT22;38422;53.172;6.974;2023-04-15T01:18:36;8.20;99.90
52513;DHT22;38422;53.172;6.974;2023-04-15T01:21:02;8.20;99.90
52513;DHT22;38422;53.172;6.974;2023-04-15T01:23:29;8.20;99.90
52513;DHT22;38422;53.172;6.974;2023-04-15T01:25:55;8.20;99.90
52513;DHT22;38422;53.172;6.974;2023-04-15T01:28:22;8.10;99.90
52513;DHT22;38422;53.172;6.974;2023-04-15T01:30:47;8.10;99.90
52513;DHT22;38422;53.172;6.974;2023-04-15T01:33:13;8.10;99.90
52513;DHT22;38422;53.172;6.974;2023-04-15T01:35:39;8.10;99.90
52513;DHT22;38422;53.172;6.974;2023-04-15T01:38:07;8.20;99.90
52513;DHT22;38422;53.172;6.974;2023-04-15T01:40:33;8.20;99.90
52513;DHT22;38422;53.172;6.974;2023-04-15T01:43:00;8.20;99.90
52513;DHT22;38422;53.172;6.974;2023-04-15T01:45:27;8.20;99.90
52513;DHT22;38422;53.172;6.974;2023-04-15T01:47:52;8.10;99.90
52513;DHT22;38422;53.172;6.974;2023-04-15T01:50:18;8.10;99.90
52513;DHT22;38422;53.172;6.974;2023-04-15T01:52:45;8.10;99.90
52513;DHT22;38422;53.172;6.974;2023-04-15T01:55:11;8.10;99.90
52513;DHT22;38422;53.172;6.974;2023-04-15T01:57:38;8.10;99.90
52513;DHT22;38422;53.172;6.974;2023-04-15T02:00:04;8.00;99.90
52513;DHT22;38422;53.172;6.974;2023-04-15T02:02:29;8.00;99.90
52513;DHT22;38422;53.172;6.974;2023-04-15T02:04:55;8.00;99.90
52513;DHT22;38422;53.172;6.974;2023-04-15T02:07:21;8.00;99.90
52513;DHT22;38422;53.172;6.974;2023-04-15T02:09:47;8.00;99.90
52513;DHT22;38422;53.172;6.974;2023-04-15T02:12:12;8.00;99.90
52513;DHT22;38422;53.172;6.974;2023-04-15T02:14:38;7.90;99.90
52513;DHT22;38422;53.172;6.974;2023-04-15T02:17:04;7.90;99.90
52513;DHT22;38422;53.172;6.974;2023-04-15T02:19:36;7.90;99.90
52513;DHT22;38422;53.172;6.974;2023-04-15T02:22:02;7.90;99.90
52513;DHT22;38422;53.172;6.974;2023-04-15T02:24:29;7.90;99.90
52513;DHT22;38422;53.172;6.974;2023-04-15T02:26:55;7.90;99.90
52513;DHT22;38422;53.172;6.974;2023-04-15T02:29:21;7.80;99.90
52513;DHT22;38422;53.172;6.974;2023-04-15T02:31:48;7.80;99.90
52513;DHT22;38422;53.172;6.974;2023-04-15T02:34:14;7.80;99.90
52513;DHT22;38422;53.172;6.974;2023-04-15T02:36:39;7.70;99.90
52513;DHT22;38422;53.172;6.974;2023-04-15T02:39:05;7.70;99.90
52513;DHT22;38422;53.172;6.974;2023-04-15T02:41:31;7.70;99.90
52513;DHT22;38422;53.172;6.974;2023-04-15T02:43:57;7.70;99.90
52513;DHT22;38422;53.172;6.974;2023-04-15T02:46:23;7.70;99.90
52513;DHT22;38422;53.172;6.974;2023-04-15T02:48:49;7.70;99.90
52513;DHT22;38422;53.172;6.974;2023-04-15T02:51:17;7.70;99.90
52513;DHT22;38422;53.172;6.974;2023-04-15T02:53:45;7.70;99.90
52513;DHT22;38422;53.172;6.974;2023-04-15T02:56:10;7.60;99.90
52513;DHT22;38422;53.172;6.974;2023-04-15T02:58:37;7.60;99.90
52513;DHT22;38422;53.172;6.974;2023-04-15T03:01:03;7.60;99.90
52513;DHT22;38422;53.172;6.974;2023-04-15T03:03:29;7.60;99.90
52513;DHT22;38422;53.172;6.974;2023-04-15T03:05:55;7.60;99.90
52513;DHT22;38422;53.172;6.974;2023-04-15T03:08:21;7.60;99.90
52513;DHT22;38422;53.172;6.974;2023-04-15T03:10:48;7.60;99.90
52513;DHT22;38422;53.172;6.974;2023-04-15T03:13:16;7.60;99.90
52513;DHT22;38422;53.172;6.974;2023-04-15T03:15:42;7.60;99.90
52513;DHT22;38422;53.172;6.974;2023-04-15T03:18:08;7.60;99.90
52513;DHT22;38422;53.172;6.974;2023-04-15T03:20:33;7.50;99.90
52513;DHT22;38422;53.172;6.974;2023-04-15T03:23:00;7.50;99.90
52513;DHT22;38422;53.172;6.974;2023-04-15T03:25:26;7.50;99.90
52513;DHT22;38422;53.172;6.974;2023-04-15T03:27:51;7.50;99.90
52513;DHT22;38422;53.172;6.974;2023-04-15T03:30:17;7.40;99.90
52513;DHT22;38422;53.172;6.974;2023-04-15T03:32:43;7.40;99.90
52513;DHT22;38422;53.172;6.974;2023-04-15T03:35:08;7.30;99.90
52513;DHT22;38422;53.172;6.974;2023-04-15T03:37:34;7.30;99.90
52513;DHT22;38422;53.172;6.974;2023-04-15T03:40:00;7.20;99.90
52513;DHT22;38422;53.172;6.974;2023-04-15T03:42:26;7.20;99.90
52513;DHT22;38422;53.172;6.974;2023-04-15T03:44:52;7.10;99.90
52513;DHT22;38422;53.172;6.974;2023-04-15T03:47:17;7.00;99.90
52513;DHT22;38422;53.172;6.974;2023-04-15T03:49:43;7.00;99.90
52513;DHT22;38422;53.172;6.974;2023-04-15T03:52:09;6.90;99.90
52513;DHT22;38422;53.172;6.974;2023-04-15T03:54:34;6.90;99.90
52513;DHT22;38422;53.172;6.974;2023-04-15T03:57:00;6.80;99.90
52513;DHT22;38422;53.172;6.974;2023-04-15T03:59:26;6.80;99.90
52513;DHT22;38422;53.172;6.974;2023-04-15T04:01:51;6.80;99.90
52513;DHT22;38422;53.172;6.974;2023-04-15T04:04:17;6.70;99.90
52513;DHT22;38422;53.172;6.974;2023-04-15T04:06:43;6.70;99.90
52513;DHT22;38422;53.172;6.974;2023-04-15T04:09:08;6.60;99.90
52513;DHT22;38422;53.172;6.974;2023-04-15T04:11:34;6.60;99.90
52513;DHT22;38422;53.172;6.974;2023-04-15T04:14:02;6.60;99.90
52513;DHT22;38422;53.172;6.974;2023-04-15T04:16:27;6.60;99.90
52513;DHT22;38422;53.172;6.974;2023-04-15T04:18:53;6.50;99.90
52513;DHT22;38422;53.172;6.974;2023-04-15T04:21:19;6.50;99.90
52513;DHT22;38422;53.172;6.974;2023-04-15T04:23:45;6.50;99.90
52513;DHT22;38422;53.172;6.974;2023-04-15T04:26:11;6.40;99.90
52513;DHT22;38422;53.172;6.974;2023-04-15T04:28:37;6.40;99.90
52513;DHT22;38422;53.172;6.974;2023-04-15T04:31:06;6.40;99.90
52513;DHT22;38422;53.172;6.974;2023-04-15T04:33:32;6.40;99.90
52513;DHT22;38422;53.172;6.974;2023-04-15T04:35:58;6.40;99.90
52513;DHT22;38422;53.172;6.974;2023-04-15T04:38:23;6.40;99.90
52513;DHT22;38422;53.172;6.974;2023-04-15T04:40:49;6.40;99.90
52513;DHT22;38422;53.172;6.974;2023-04-15T04:43:15;6.40;99.90
52513;DHT22;38422;53.172;6.974;2023-04-15T04:45:41;6.30;99.90
52513;DHT22;38422;53.172;6.974;2023-04-15T04:48:07;6.30;99.90
52513;DHT22;38422;53.172;6.974;2023-04-15T04:50:36;6.30;99.90
52513;DHT22;38422;53.172;6.974;2023-04-15T04:53:02;6.30;99.90
52513;DHT22;38422;53.172;6.974;2023-04-15T04:55:28;6.20;99.90
52513;DHT22;38422;53.172;6.974;2023-04-15T04:57:54;6.20;99.90
52513;DHT22;38422;53.172;6.974;2023-04-15T05:00:20;6.20;99.90
52513;DHT22;38422;53.172;6.974;2023-04-15T05:02:45;6.20;99.90
52513;DHT22;38422;53.172;6.974;2023-04-15T05:05:11;6.20;99.90
52513;DHT22;38422;53.172;6.974;2023-04-15T05:07:37;6.20;99.90
52513;DHT22;38422;53.172;6.974;2023-04-15T05:10:04;6.20;99.90
52513;DHT22;38422;53.172;6.974;2023-04-15T05:12:31;6.20;99.90
52513;DHT22;38422;53.172;6.974;2023-04-15T05:14:57;6.20;99.90
52513;DHT22;38422;53.172;6.974;2023-04-15T05:17:22;6.20;99.90
52513;DHT22;38422;53.172;6.974;2023-04-15T05:19:48;6.30;99.90
52513;DHT22;38422;53.172;6.974;2023-04-15T05:22:14;6.30;99.90
52513;DHT22;38422;53.172;6.974;2023-04-15T05:24:40;6.20;99.90
52513;DHT22;38422;53.172;6.974;2023-04-15T05:27:05;6.30;99.90
52513;DHT22;38422;53.172;6.974;2023-04-15T05:29:33;6.30;99.90
52513;DHT22;38422;53.172;6.974;2023-04-15T05:31:59;6.30;99.90
52513;DHT22;38422;53.172;6.974;2023-04-15T05:34:24;6.30;99.90
52513;DHT22;38422;53.172;6.974;2023-04-15T05:36:51;6.30;99.90
52513;DHT22;38422;53.172;6.974;2023-04-15T05:39:17;6.40;99.90
52513;DHT22;38422;53.172;6.974;2023-04-15T05:41:43;6.50;99.90
52513;DHT22;38422;53.172;6.974;2023-04-15T05:44:09;6.50;99.90
52513;DHT22;38422;53.172;6.974;2023-04-15T05:46:35;6.60;99.90
52513;DHT22;38422;53.172;6.974;2023-04-15T05:49:00;6.70;99.90
52513;DHT22;38422;53.172;6.974;2023-04-15T05:51:26;6.80;99.90
52513;DHT22;38422;53.172;6.974;2023-04-15T05:53:52;6.90;99.90
52513;DHT22;38422;53.172;6.974;2023-04-15T05:56:18;7.00;99.90
52513;DHT22;38422;53.172;6.974;2023-04-15T05:58:45;7.10;99.90
52513;DHT22;38422;53.172;6.974;2023-04-15T06:01:10;7.20;99.90
52513;DHT22;38422;53.172;6.974;2023-04-15T06:03:37;7.30;99.90
52513;DHT22;38422;53.172;6.974;2023-04-15T06:06:03;7.30;99.90
52513;DHT22;38422;53.172;6.974;2023-04-15T06:08:29;7.40;99.90
52513;DHT22;38422;53.172;6.974;2023-04-15T06:10:55;7.50;99.90
52513;DHT22;38422;53.172;6.974;2023-04-15T06:13:20;7.50;99.90
52513;DHT22;38422;53.172;6.974;2023-04-15T06:15:46;7.60;99.90
52513;DHT22;38422;53.172;6.974;2023-04-15T06:18:12;7.60;99.90
52513;DHT22;38422;53.172;6.974;2023-04-15T06:20:38;7.70;99.90
52513;DHT22;38422;53.172;6.974;2023-04-15T06:23:04;7.70;99.90
52513;DHT22;38422;53.172;6.974;2023-04-15T06:25:29;7.80;99.90
52513;DHT22;38422;53.172;6.974;2023-04-15T06:27:55;7.80;99.90
52513;DHT22;38422;53.172;6.974;2023-04-15T06:30:21;7.80;99.90
52513;DHT22;38422;53.172;6.974;2023-04-15T06:32:46;7.90;99.90
52513;DHT22;38422;53.172;6.974;2023-04-15T06:35:13;7.90;99.90
52513;DHT22;38422;53.172;6.974;2023-04-15T06:37:38;7.90;99.90
52513;DHT22;38422;53.172;6.974;2023-04-15T06:40:05;7.90;99.90
52513;DHT22;38422;53.172;6.974;2023-04-15T06:42:31;8.00;99.90
52513;DHT22;38422;53.172;6.974;2023-04-15T06:44:57;8.00;99.90
52513;DHT22;38422;53.172;6.974;2023-04-15T06:47:22;8.00;99.90
52513;DHT22;38422;53.172;6.974;2023-04-15T06:49:48;8.10;99.90
52513;DHT22;38422;53.172;6.974;2023-04-15T06:52:14;8.10;99.90
52513;DHT22;38422;53.172;6.974;2023-04-15T06:54:41;8.20;99.90
52513;DHT22;38422;53.172;6.974;2023-04-15T06:57:08;8.20;99.90
52513;DHT22;38422;53.172;6.974;2023-04-15T06:59:34;8.30;99.90
52513;DHT22;38422;53.172;6.974;2023-04-15T07:02:02;8.30;99.90
52513;DHT22;38422;53.172;6.974;2023-04-15T07:04:27;8.30;99.90
52513;DHT22;38422;53.172;6.974;2023-04-15T07:06:53;8.40;99.90
52513;DHT22;38422;53.172;6.974;2023-04-15T07:09:21;8.50;99.90
52513;DHT22;38422;53.172;6.974;2023-04-15T07:11:47;8.50;99.90
52513;DHT22;38422;53.172;6.974;2023-04-15T07:14:13;8.60;99.90
52513;DHT22;38422;53.172;6.974;2023-04-15T07:16:39;8.60;99.90
52513;DHT22;38422;53.172;6.974;2023-04-15T07:19:04;8.70;99.90
52513;DHT22;38422;53.172;6.974;2023-04-15T07:21:30;8.70;99.90
52513;DHT22;38422;53.172;6.974;2023-04-15T07:23:56;8.70;99.90
52513;DHT22;38422;53.172;6.974;2023-04-15T07:26:23;8.70;99.90
52513;DHT22;38422;53.172;6.974;2023-04-15T07:28:49;8.80;99.90
52513;DHT22;38422;53.172;6.974;2023-04-15T07:31:15;8.80;99.90
52513;DHT22;38422;53.172;6.974;2023-04-15T07:33:41;8.90;99.90
52513;DHT22;38422;53.172;6.974;2023-04-15T07:36:08;8.90;99.90
52513;DHT22;38422;53.172;6.974;2023-04-15T07:38:34;9.00;99.90
52513;DHT22;38422;53.172;6.974;2023-04-15T07:41:00;9.10;99.90
52513;DHT22;38422;53.172;6.974;2023-04-15T07:43:26;9.10;99.90
52513;DHT22;38422;53.172;6.974;2023-04-15T07:45:52;9.10;99.90
52513;DHT22;38422;53.172;6.974;2023-04-15T07:48:18;9.20;99.90
52513;DHT22;38422;53.172;6.974;2023-04-15T07:50:44;9.30;99.90
52513;DHT22;38422;53.172;6.974;2023-04-15T07:53:10;9.40;99.90
52513;DHT22;38422;53.172;6.974;2023-04-15T07:55:35;9.40;99.90
52513;DHT22;38422;53.172;6.974;2023-04-15T07:58:01;9.40;99.90
52513;DHT22;38422;53.172;6.974;2023-04-15T08:00:27;9.40;99.90
52513;DHT22;38422;53.172;6.974;2023-04-15T08:02:53;9.40;99.90
52513;DHT22;38422;53.172;6.974;2023-04-15T08:05:18;9.40;99.90
52513;DHT22;38422;53.172;6.974;2023-04-15T08:07:44;9.40;99.90
52513;DHT22;38422;53.172;6.974;2023-04-15T08:10:11;9.40;99.90
52513;DHT22;38422;53.172;6.974;2023-04-15T08:12:37;9.40;99.90
52513;DHT22;38422;53.172;6.974;2023-04-15T08:15:03;9.30;99.90
52513;DHT22;38422;53.172;6.974;2023-04-15T08:17:29;9.30;99.90
52513;DHT22;38422;53.172;6.974;2023-04-15T08:19:54;9.30;99.90
52513;DHT22;38422;53.172;6.974;2023-04-15T08:22:20;9.40;99.90
52513;DHT22;38422;53.172;6.974;2023-04-15T08:24:46;9.40;99.90
52513;DHT22;38422;53.172;6.974;2023-04-15T08:27:12;9.30;99.90
52513;DHT22;38422;53.172;6.974;2023-04-15T08:29:38;9.30;99.90
52513;DHT22;38422;53.172;6.974;2023-04-15T08:32:05;9.30;99.90
52513;DHT22;38422;53.172;6.974;2023-04-15T08:34:31;9.20;99.90
52513;DHT22;38422;53.172;6.974;2023-04-15T08:36:56;9.20;99.90
52513;DHT22;38422;53.172;6.974;2023-04-15T08:39:22;9.30;99.90
52513;DHT22;38422;53.172;6.974;2023-04-15T08:42:01;9.30;99.90
52513;DHT22;38422;53.172;6.974;2023-04-15T08:44:29;9.30;99.90
52513;DHT22;38422;53.172;6.974;2023-04-15T08:47:01;9.30;99.90
52513;DHT22;38422;53.172;6.974;2023-04-15T08:49:28;9.30;99.90
52513;DHT22;38422;53.172;6.974;2023-04-15T08:51:56;9.30;99.90
52513;DHT22;38422;53.172;6.974;2023-04-15T08:54:22;9.30;99.90
52513;DHT22;38422;53.172;6.974;2023-04-15T08:56:49;9.30;99.90
52513;DHT22;38422;53.172;6.974;2023-04-15T08:59:14;9.40;99.90
52513;DHT22;38422;53.172;6.974;2023-04-15T09:01:41;9.50;99.90
52513;DHT22;38422;53.172;6.974;2023-04-15T09:04:07;9.60;99.90
52513;DHT22;38422;53.172;6.974;2023-04-15T09:06:33;9.60;99.90
52513;DHT22;38422;53.172;6.974;2023-04-15T09:08:59;9.70;99.90
52513;DHT22;38422;53.172;6.974;2023-04-15T09:11:25;9.70;99.90
52513;DHT22;38422;53.172;6.974;2023-04-15T09:13:51;9.70;99.90
52513;DHT22;38422;53.172;6.974;2023-04-15T09:16:17;9.70;99.90
52513;DHT22;38422;53.172;6.974;2023-04-15T09:18:44;9.60;99.90
52513;DHT22;38422;53.172;6.974;2023-04-15T09:21:11;9.60;99.90
52513;DHT22;38422;53.172;6.974;2023-04-15T09:23:40;9.60;99.90
52513;DHT22;38422;53.172;6.974;2023-04-15T09:26:18;9.70;99.90
52513;DHT22;38422;53.172;6.974;2023-04-15T09:28:43;9.70;99.90
52513;DHT22;38422;53.172;6.974;2023-04-15T09:31:09;9.70;99.90
52513;DHT22;38422;53.172;6.974;2023-04-15T09:33:35;9.70;99.90
52513;DHT22;38422;53.172;6.974;2023-04-15T09:36:18;9.70;99.90
52513;DHT22;38422;53.172;6.974;2023-04-15T09:38:57;9.70;99.90
52513;DHT22;38422;53.172;6.974;2023-04-15T09:41:24;9.70;99.90
52513;DHT22;38422;53.172;6.974;2023-04-15T09:43:50;9.70;99.90
52513;DHT22;38422;53.172;6.974;2023-04-15T09:46:16;9.70;99.90
52513;DHT22;38422;53.172;6.974;2023-04-15T09:48:42;9.60;99.90
52513;DHT22;38422;53.172;6.974;2023-04-15T09:51:08;9.60;99.90
52513;DHT22;38422;53.172;6.974;2023-04-15T09:53:35;9.60;99.90
52513;DHT22;38422;53.172;6.974;2023-04-15T09:56:01;9.60;99.90
52513;DHT22;38422;53.172;6.974;2023-04-15T09:58:32;9.60;99.90
52513;DHT22;38422;53.172;6.974;2023-04-15T10:01:01;9.60;99.90
52513;DHT22;38422;53.172;6.974;2023-04-15T10:03:29;9.60;99.90
52513;DHT22;38422;53.172;6.974;2023-04-15T10:05:57;9.60;99.90
52513;DHT22;38422;53.172;6.974;2023-04-15T10:08:26;9.60;99.90
52513;DHT22;38422;53.172;6.974;2023-04-15T10:10:53;9.60;99.90
52513;DHT22;38422;53.172;6.974;2023-04-15T10:13:23;9.60;99.90
52513;DHT22;38422;53.172;6.974;2023-04-15T10:16:15;9.60;99.90
52513;DHT22;38422;53.172;6.974;2023-04-15T10:18:53;9.70;99.90
52513;DHT22;38422;53.172;6.974;2023-04-15T10:21:20;9.70;99.90
52513;DHT22;38422;53.172;6.974;2023-04-15T10:23:47;9.70;99.90
52513;DHT22;38422;53.172;6.974;2023-04-15T10:26:14;9.80;99.90
52513;DHT22;38422;53.172;6.974;2023-04-15T10:28:42;9.80;99.90
52513;DHT22;38422;53.172;6.974;2023-04-15T10:31:08;9.80;99.90
52513;DHT22;38422;53.172;6.974;2023-04-15T10:33:36;9.90;99.90
52513;DHT22;38422;53.172;6.974;2023-04-15T10:36:03;9.90;99.90
52513;DHT22;38422;53.172;6.974;2023-04-15T10:38:42;9.90;99.90
52513;DHT22;38422;53.172;6.974;2023-04-15T10:41:22;9.90;99.90
52513;DHT22;38422;53.172;6.974;2023-04-15T10:43:58;9.90;99.90
52513;DHT22;38422;53.172;6.974;2023-04-15T10:46:44;9.90;99.90
52513;DHT22;38422;53.172;6.974;2023-04-15T10:49:12;9.80;99.90
52513;DHT22;38422;53.172;6.974;2023-04-15T10:51:42;9.80;99.90
52513;DHT22;38422;53.172;6.974;2023-04-15T10:54:12;9.80;99.90
52513;DHT22;38422;53.172;6.974;2023-04-15T10:56:41;9.80;99.90
52513;DHT22;38422;53.172;6.974;2023-04-15T10:59:08;9.80;99.90
52513;DHT22;38422;53.172;6.974;2023-04-15T11:01:55;9.70;99.90
52513;DHT22;38422;53.172;6.974;2023-04-15T11:04:56;9.70;99.90
52513;DHT22;38422;53.172;6.974;2023-04-15T11:07:54;9.70;99.90
52513;DHT22;38422;53.172;6.974;2023-04-15T11:13:01;9.70;99.90
52513;DHT22;38422;53.172;6.974;2023-04-15T11:15:35;9.70;99.90
52513;DHT22;38422;53.172;6.974;2023-04-15T11:20:46;9.70;99.90
52513;DHT22;38422;53.172;6.974;2023-04-15T11:23:17;9.70;99.90
52513;DHT22;38422;53.172;6.974;2023-04-15T11:25:44;9.70;99.90
52513;DHT22;38422;53.172;6.974;2023-04-15T11:28:11;9.70;99.90
52513;DHT22;38422;53.172;6.974;2023-04-15T11:30:38;9.70;99.90
52513;DHT22;38422;53.172;6.974;2023-04-15T11:33:06;9.70;99.90
52513;DHT22;38422;53.172;6.974;2023-04-15T11:35:34;9.70;99.90
52513;DHT22;38422;53.172;6.974;2023-04-15T11:38:04;9.70;99.90
52513;DHT22;38422;53.172;6.974;2023-04-15T11:40:31;9.80;99.90
52513;DHT22;38422;53.172;6.974;2023-04-15T11:43:07;9.80;99.90
52513;DHT22;38422;53.172;6.974;2023-04-15T11:45:34;9.80;99.90
52513;DHT22;38422;53.172;6.974;2023-04-15T11:48:08;9.80;99.90
52513;DHT22;38422;53.172;6.974;2023-04-15T11:50:35;9.80;99.90
52513;DHT22;38422;53.172;6.974;2023-04-15T11:53:03;9.80;99.90
52513;DHT22;38422;53.172;6.974;2023-04-15T11:55:29;9.80;99.90
52513;DHT22;38422;53.172;6.974;2023-04-15T11:58:09;9.80;99.90
52513;DHT22;38422;53.172;6.974;2023-04-15T12:00:35;9.80;99.90
52513;DHT22;38422;53.172;6.974;2023-04-15T12:16:26;9.80;99.90
52513;DHT22;38422;53.172;6.974;2023-04-15T12:18:57;9.80;99.90
52513;DHT22;38422;53.172;6.974;2023-04-15T12:21:27;9.80;99.90
52513;DHT22;38422;53.172;6.974;2023-04-15T12:24:02;9.80;99.90
52513;DHT22;38422;53.172;6.974;2023-04-15T12:29:06;9.80;99.90
52513;DHT22;38422;53.172;6.974;2023-04-15T12:31:36;9.80;99.90
52513;DHT22;38422;53.172;6.974;2023-04-15T12:34:05;9.80;99.90
52513;DHT22;38422;53.172;6.974;2023-04-15T12:36:32;9.80;99.90
52513;DHT22;38422;53.172;6.974;2023-04-15T12:39:04;9.80;99.90
52513;DHT22;38422;53.172;6.974;2023-04-15T12:41:33;9.70;99.90
52513;DHT22;38422;53.172;6.974;2023-04-15T12:43:59;9.70;99.90
52513;DHT22;38422;53.172;6.974;2023-04-15T12:46:26;9.70;99.90
52513;DHT22;38422;53.172;6.974;2023-04-15T12:48:52;9.70;99.90
52513;DHT22;38422;53.172;6.974;2023-04-15T12:51:18;9.70;99.90
52513;DHT22;38422;53.172;6.974;2023-04-15T12:53:46;9.70;99.90
52513;DHT22;38422;53.172;6.974;2023-04-15T12:56:13;9.60;99.90
52513;DHT22;38422;53.172;6.974;2023-04-15T12:58:39;9.60;99.90
52513;DHT22;38422;53.172;6.974;2023-04-15T13:01:04;9.60;99.90
52513;DHT22;38422;53.172;6.974;2023-04-15T13:03:31;9.60;99.90
52513;DHT22;38422;53.172;6.974;2023-04-15T13:05:57;9.60;99.90
52513;DHT22;38422;53.172;6.974;2023-04-15T13:08:22;9.50;99.90
52513;DHT22;38422;53.172;6.974;2023-04-15T13:10:48;9.50;99.90
52513;DHT22;38422;53.172;6.974;2023-04-15T13:13:14;9.50;99.90
52513;DHT22;38422;53.172;6.974;2023-04-15T13:15:40;9.50;99.90
52513;DHT22;38422;53.172;6.974;2023-04-15T13:18:06;9.50;99.90
52513;DHT22;38422;53.172;6.974;2023-04-15T13:20:32;9.50;99.90
52513;DHT22;38422;53.172;6.974;2023-04-15T13:22:58;9.50;99.90
52513;DHT22;38422;53.172;6.974;2023-04-15T13:25:24;9.50;99.90
52513;DHT22;38422;53.172;6.974;2023-04-15T13:27:50;9.50;99.90
52513;DHT22;38422;53.172;6.974;2023-04-15T13:30:16;9.50;99.90
52513;DHT22;38422;53.172;6.974;2023-04-15T13:32:42;9.50;99.90
52513;DHT22;38422;53.172;6.974;2023-04-15T13:35:07;9.40;99.90
52513;DHT22;38422;53.172;6.974;2023-04-15T13:37:33;9.40;99.90
52513;DHT22;38422;53.172;6.974;2023-04-15T13:39:59;9.40;99.90
52513;DHT22;38422;53.172;6.974;2023-04-15T13:42:25;9.40;99.90
52513;DHT22;38422;53.172;6.974;2023-04-15T13:44:52;9.40;99.90
52513;DHT22;38422;53.172;6.974;2023-04-15T13:47:21;9.40;99.90
52513;DHT22;38422;53.172;6.974;2023-04-15T13:49:46;9.40;99.90
52513;DHT22;38422;53.172;6.974;2023-04-15T13:52:12;9.40;99.90
52513;DHT22;38422;53.172;6.974;2023-04-15T13:54:38;9.40;99.90
52513;DHT22;38422;53.172;6.974;2023-04-15T13:57:05;9.30;99.90
52513;DHT22;38422;53.172;6.974;2023-04-15T13:59:32;9.30;99.90
52513;DHT22;38422;53.172;6.974;2023-04-15T14:01:58;9.30;99.90
52513;DHT22;38422;53.172;6.974;2023-04-15T14:04:24;9.30;99.90
52513;DHT22;38422;53.172;6.974;2023-04-15T14:06:50;9.30;99.90
52513;DHT22;38422;53.172;6.974;2023-04-15T14:09:15;9.30;99.90
52513;DHT22;38422;53.172;6.974;2023-04-15T14:11:41;9.30;99.90
52513;DHT22;38422;53.172;6.974;2023-04-15T14:14:07;9.30;99.90
52513;DHT22;38422;53.172;6.974;2023-04-15T14:16:33;9.30;99.90
52513;DHT22;38422;53.172;6.974;2023-04-15T14:18:59;9.30;99.90
52513;DHT22;38422;53.172;6.974;2023-04-15T14:21:25;9.20;99.90
52513;DHT22;38422;53.172;6.974;2023-04-15T14:23:53;9.20;99.90
52513;DHT22;38422;53.172;6.974;2023-04-15T14:26:19;9.20;99.90
52513;DHT22;38422;53.172;6.974;2023-04-15T14:28:44;9.10;99.90
52513;DHT22;38422;53.172;6.974;2023-04-15T14:31:10;9.10;99.90
52513;DHT22;38422;53.172;6.974;2023-04-15T14:33:36;9.10;99.90
52513;DHT22;38422;53.172;6.974;2023-04-15T14:36:02;9.10;99.90
52513;DHT22;38422;53.172;6.974;2023-04-15T14:38:27;9.10;99.90
52513;DHT22;38422;53.172;6.974;2023-04-15T14:40:53;9.10;99.90
52513;DHT22;38422;53.172;6.974;2023-04-15T14:43:19;9.10;99.90
52513;DHT22;38422;53.172;6.974;2023-04-15T14:45:45;9.10;99.90
52513;DHT22;38422;53.172;6.974;2023-04-15T14:48:11;9.10;99.90
52513;DHT22;38422;53.172;6.974;2023-04-15T14:50:37;9.10;99.90
52513;DHT22;38422;53.172;6.974;2023-04-15T14:53:03;9.10;99.90
52513;DHT22;38422;53.172;6.974;2023-04-15T14:55:29;9.10;99.90
52513;DHT22;38422;53.172;6.974;2023-04-15T14:57:54;9.10;99.90
52513;DHT22;38422;53.172;6.974;2023-04-15T15:00:20;9.10;99.90
52513;DHT22;38422;53.172;6.974;2023-04-15T15:02:46;9.00;99.90
52513;DHT22;38422;53.172;6.974;2023-04-15T15:05:12;9.00;99.90
52513;DHT22;38422;53.172;6.974;2023-04-15T15:07:38;9.00;99.90
52513;DHT22;38422;53.172;6.974;2023-04-15T15:10:05;9.10;99.90
52513;DHT22;38422;53.172;6.974;2023-04-15T15:12:32;9.10;99.90
52513;DHT22;38422;53.172;6.974;2023-04-15T15:14:57;9.10;99.90
52513;DHT22;38422;53.172;6.974;2023-04-15T15:17:23;9.10;99.90
52513;DHT22;38422;53.172;6.974;2023-04-15T15:19:49;9.10;99.90
52513;DHT22;38422;53.172;6.974;2023-04-15T15:22:15;9.10;99.90
52513;DHT22;38422;53.172;6.974;2023-04-15T15:24:41;9.10;99.90
52513;DHT22;38422;53.172;6.974;2023-04-15T15:27:07;9.10;99.90
52513;DHT22;38422;53.172;6.974;2023-04-15T15:29:33;9.10;99.90
52513;DHT22;38422;53.172;6.974;2023-04-15T15:31:58;9.10;99.90
52513;DHT22;38422;53.172;6.974;2023-04-15T15:34:24;9.10;99.90
52513;DHT22;38422;53.172;6.974;2023-04-15T15:36:50;9.10;99.90
52513;DHT22;38422;53.172;6.974;2023-04-15T15:39:16;9.10;99.90
52513;DHT22;38422;53.172;6.974;2023-04-15T15:41:41;9.00;99.90
52513;DHT22;38422;53.172;6.974;2023-04-15T15:44:07;9.00;99.90
52513;DHT22;38422;53.172;6.974;2023-04-15T15:46:33;9.00;99.90
52513;DHT22;38422;53.172;6.974;2023-04-15T15:48:58;9.10;99.90
52513;DHT22;38422;53.172;6.974;2023-04-15T15:51:26;9.10;99.90
52513;DHT22;38422;53.172;6.974;2023-04-15T15:53:52;9.00;99.90
52513;DHT22;38422;53.172;6.974;2023-04-15T15:56:17;9.00;99.90
52513;DHT22;38422;53.172;6.974;2023-04-15T15:58:43;9.00;99.90
52513;DHT22;38422;53.172;6.974;2023-04-15T16:01:10;9.10;99.90
52513;DHT22;38422;53.172;6.974;2023-04-15T16:03:35;9.00;99.90